PWSweather.com
Personal Weather Stations
Station Observations
REUBENS
Camas Prairie, Reubens, ID

Camas PrairieReubens, ID

Lat: 46.35417, Lon: -116.53167

Elevation: 3480

Station Type: Davis VantagePro 2

http://www.theobrienranch.com/wx/wx.htm

High Low Average
Temperature 67.2°F19.6°F 38.5°F3.6°F 51.3°F10.7°F
Dew Point 45.7°F7.6°F 33.2°F0.7°F 39.7°F4.3°F
Winds 8.6 mph E13.8 mph E Calm Calm 3.3 mph 5.3 mph
Wind Gusts 11.0 mph17.7 mph -- 4.3 mph6.9 mph
Humidity 83% 42% 66%
Pressure 30.14 in1020.70 in 29.79 in1008.80 in -
Precipitation 0.00 in0.00 in - -
Hour Temp Dew Point Humidity Winds Wind Gusts Pressure Precip Precip Rate Daily Precip Total
12:00 AM 43.4°F6.3°C 36.7°F2.6°C 77% 5.8 mph S9.3 kmh S 7.0 mph11.3 kmh 30.14 in1020.7 mb - 0.00 in0.0 mm 0.00 in0.0 mm
12:30 AM 42.7°F5.9°C 36.3°F2.4°C 78% 5.4 mph SSW8.7 kmh SSW 6.0 mph9.7 kmh 30.13 in1020.3 mb - 0.00 in0.0 mm 0.00 in0.0 mm
01:00 AM 42.1°F5.6°C 36.0°F2.2°C 79% 4.5 mph SSW7.2 kmh SSW 5.0 mph8.0 kmh 30.13 in1020.3 mb - 0.00 in0.0 mm 0.00 in0.0 mm
01:30 AM 41.5°F5.3°C 35.5°F1.9°C 79% 3.3 mph SSW5.3 kmh SSW 4.0 mph6.4 kmh 30.12 in1020.0 mb - 0.00 in0.0 mm 0.00 in0.0 mm
02:00 AM 42.3°F5.7°C 35.6°F2.0°C 77% 5.3 mph SSW8.5 kmh SSW 7.0 mph11.3 kmh 30.11 in1019.6 mb - 0.00 in0.0 mm 0.00 in0.0 mm
02:30 AM 42.3°F5.7°C 35.6°F2.0°C 77% 1.3 mph SSW2.1 kmh SSW 2.0 mph3.2 kmh 30.11 in1019.6 mb - 0.00 in0.0 mm 0.00 in0.0 mm
03:00 AM 43.2°F6.2°C 35.5°F1.9°C 74% 4.3 mph SSW6.9 kmh SSW 5.0 mph8.0 kmh 30.10 in1019.3 mb - 0.00 in0.0 mm 0.00 in0.0 mm
03:30 AM 40.5°F4.7°C 34.5°F1.4°C 79% 2.3 mph SSW3.7 kmh SSW 3.0 mph4.8 kmh 30.11 in1019.6 mb - 0.00 in0.0 mm 0.00 in0.0 mm
04:00 AM 42.1°F5.6°C 35.1°F1.7°C 76% 5.0 mph SSW8.0 kmh SSW 6.0 mph9.7 kmh 30.10 in1019.3 mb - 0.00 in0.0 mm 0.00 in0.0 mm
04:30 AM 41.8°F5.4°C 34.5°F1.4°C 75% 0.9 mph SSW1.4 kmh SSW 1.0 mph1.6 kmh 30.10 in1019.3 mb - 0.00 in0.0 mm 0.00 in0.0 mm
05:00 AM 42.9°F6.1°C 35.1°F1.7°C 74% 1.7 mph SSW2.7 kmh SSW 2.0 mph3.2 kmh 30.11 in1019.6 mb - 0.00 in0.0 mm 0.00 in0.0 mm
05:30 AM 40.4°F4.7°C 34.1°F1.2°C 78% 1.6 mph SSW2.6 kmh SSW 2.0 mph3.2 kmh 30.11 in1019.6 mb - 0.00 in0.0 mm 0.00 in0.0 mm
06:00 AM 38.6°F3.7°C 33.3°F0.7°C 81% Calm Calm -- 30.13 in1020.3 mb - 0.00 in0.0 mm 0.00 in0.0 mm
06:30 AM 38.5°F3.6°C 33.2°F0.7°C 81% 4.1 mph SSW6.6 kmh SSW 5.0 mph8.0 kmh 30.12 in1020.0 mb - 0.00 in0.0 mm 0.00 in0.0 mm
07:00 AM 40.0°F4.4°C 33.6°F0.9°C 78% 4.2 mph SE6.8 kmh SE 5.0 mph8.0 kmh 30.12 in1020.0 mb - 0.00 in0.0 mm 0.00 in0.0 mm
07:30 AM 40.1°F4.5°C 35.4°F1.9°C 83% 4.3 mph SE6.9 kmh SE 5.0 mph8.0 kmh 30.12 in1020.0 mb - 0.00 in0.0 mm 0.00 in0.0 mm
08:00 AM 43.3°F6.3°C 37.5°F3.1°C 80% 4.4 mph E7.1 kmh E 6.0 mph9.7 kmh 30.11 in1019.6 mb - 0.00 in0.0 mm 0.00 in0.0 mm
08:30 AM 45.1°F7.3°C 38.3°F3.5°C 77% 4.9 mph ESE7.9 kmh ESE 6.0 mph9.7 kmh 30.10 in1019.3 mb - 0.00 in0.0 mm 0.00 in0.0 mm
09:00 AM 47.9°F8.8°C 40.0°F4.4°C 74% 5.0 mph E8.0 kmh E 6.0 mph9.7 kmh 30.10 in1019.3 mb - 0.00 in0.0 mm 0.00 in0.0 mm
09:30 AM 48.5°F9.2°C 40.6°F4.8°C 74% 7.2 mph E11.6 kmh E 7.0 mph11.3 kmh 30.09 in1019.0 mb - 0.00 in0.0 mm 0.00 in0.0 mm
10:00 AM 51.6°F10.9°C 42.5°F5.8°C 71% 6.3 mph SE10.1 kmh SE 7.0 mph11.3 kmh 30.09 in1019.0 mb - 0.00 in0.0 mm 0.00 in0.0 mm
10:30 AM 53.6°F12.0°C 42.9°F6.1°C 67% 8.6 mph E13.8 kmh E 11.0 mph17.7 kmh 30.07 in1018.3 mb - 0.00 in0.0 mm 0.00 in0.0 mm
11:00 AM 55.3°F12.9°C 43.7°F6.5°C 65% 7.7 mph E12.4 kmh E 10.0 mph16.1 kmh 30.06 in1017.9 mb - 0.00 in0.0 mm 0.00 in0.0 mm
11:30 AM 57.0°F13.9°C 43.2°F6.2°C 60% 5.8 mph ENE9.3 kmh ENE 10.0 mph16.1 kmh 30.05 in1017.6 mb - 0.00 in0.0 mm 0.00 in0.0 mm
12:00 PM 58.6°F14.8°C 44.8°F7.1°C 60% 8.2 mph ENE13.2 kmh ENE 10.0 mph16.1 kmh 30.04 in1017.3 mb - 0.00 in0.0 mm 0.00 in0.0 mm
12:30 PM 60.6°F15.9°C 41.8°F5.4°C 50% 3.2 mph NE5.1 kmh NE 5.0 mph8.0 kmh 30.03 in1016.9 mb - 0.00 in0.0 mm 0.00 in0.0 mm
01:00 PM 60.9°F16.1°C 43.1°F6.2°C 52% 1.0 mph ENE1.6 kmh ENE 2.0 mph3.2 kmh 30.02 in1016.6 mb - 0.00 in0.0 mm 0.00 in0.0 mm
01:30 PM 64.5°F18.1°C 41.5°F5.3°C 43% 3.3 mph NE5.3 kmh NE 5.0 mph8.0 kmh 29.99 in1015.6 mb - 0.00 in0.0 mm 0.00 in0.0 mm
02:00 PM 67.2°F19.6°C 44.5°F6.9°C 44% 2.5 mph NNW4.0 kmh NNW 5.0 mph8.0 kmh 29.97 in1014.9 mb - 0.00 in0.0 mm 0.00 in0.0 mm
02:30 PM 64.6°F18.1°C 41.0°F5.0°C 42% Calm Calm -- 29.96 in1014.6 mb - 0.00 in0.0 mm 0.00 in0.0 mm
03:00 PM 66.4°F19.1°C 44.4°F6.9°C 45% 0.3 mph NNW0.5 kmh NNW 2.0 mph3.2 kmh 29.95 in1014.2 mb - 0.00 in0.0 mm 0.00 in0.0 mm
03:30 PM 65.2°F18.4°C 43.9°F6.6°C 46% Calm Calm -- 29.95 in1014.2 mb - 0.00 in0.0 mm 0.00 in0.0 mm
04:00 PM 63.1°F17.3°C 45.7°F7.6°C 53% 0.2 mph NNW0.3 kmh NNW 2.0 mph3.2 kmh 29.93 in1013.5 mb - 0.00 in0.0 mm 0.00 in0.0 mm
04:30 PM 62.9°F17.2°C 44.5°F6.9°C 51% 4.8 mph ENE7.7 kmh ENE 7.0 mph11.3 kmh 29.92 in1013.2 mb - 0.00 in0.0 mm 0.00 in0.0 mm
05:00 PM 62.1°F16.7°C 44.2°F6.8°C 52% 3.7 mph ENE6.0 kmh ENE 6.0 mph9.7 kmh 29.92 in1013.2 mb - 0.00 in0.0 mm 0.00 in0.0 mm
05:30 PM 61.4°F16.3°C 43.1°F6.2°C 51% 1.7 mph NE2.7 kmh NE 2.0 mph3.2 kmh 29.91 in1012.9 mb - 0.00 in0.0 mm 0.00 in0.0 mm
06:00 PM 60.5°F15.8°C 42.8°F6.0°C 52% 2.1 mph N3.4 kmh N 2.0 mph3.2 kmh 29.91 in1012.9 mb - 0.00 in0.0 mm 0.00 in0.0 mm
06:30 PM 59.0°F15.0°C 42.8°F6.0°C 55% 3.1 mph N5.0 kmh N 4.0 mph6.4 kmh 29.91 in1012.9 mb - 0.00 in0.0 mm 0.00 in0.0 mm
07:00 PM 57.3°F14.1°C 43.1°F6.2°C 59% 1.7 mph NE2.7 kmh NE 2.0 mph3.2 kmh 29.89 in1012.2 mb - 0.00 in0.0 mm 0.00 in0.0 mm
07:30 PM 57.1°F13.9°C 40.1°F4.5°C 53% 1.5 mph NE2.4 kmh NE 2.0 mph3.2 kmh 29.88 in1011.9 mb - 0.00 in0.0 mm 0.00 in0.0 mm
08:00 PM 56.4°F13.6°C 40.4°F4.7°C 55% Calm Calm -- 29.86 in1011.2 mb - 0.00 in0.0 mm 0.00 in0.0 mm
08:30 PM 52.3°F11.3°C 44.3°F6.8°C 74% 1.9 mph NE3.1 kmh NE 2.0 mph3.2 kmh 29.87 in1011.5 mb - 0.00 in0.0 mm 0.00 in0.0 mm
09:00 PM 50.7°F10.4°C 42.3°F5.7°C 73% 1.1 mph NE1.8 kmh NE 3.0 mph4.8 kmh 29.86 in1011.2 mb - 0.00 in0.0 mm 0.00 in0.0 mm
09:30 PM 50.4°F10.2°C 41.0°F5.0°C 70% 1.2 mph SSE1.9 kmh SSE 2.0 mph3.2 kmh 29.85 in1010.8 mb - 0.00 in0.0 mm 0.00 in0.0 mm
10:00 PM 49.9°F9.9°C 40.5°F4.7°C 70% 1.8 mph SSE2.9 kmh SSE 3.0 mph4.8 kmh 29.83 in1010.2 mb - 0.00 in0.0 mm 0.00 in0.0 mm
10:30 PM 49.0°F9.4°C 40.0°F4.4°C 71% 2.3 mph S3.7 kmh S 4.0 mph6.4 kmh 29.82 in1009.8 mb - 0.00 in0.0 mm 0.00 in0.0 mm
11:00 PM 49.1°F9.5°C 39.7°F4.3°C 70% 1.6 mph S2.6 kmh S 3.0 mph4.8 kmh 29.79 in1008.8 mb - 0.00 in0.0 mm 0.00 in0.0 mm
11:30 PM 48.9°F9.4°C 39.5°F4.2°C 70% 5.1 mph S8.2 kmh S 6.0 mph9.7 kmh 29.79 in1008.8 mb - 0.00 in0.0 mm 0.00 in0.0 mm